Time;durP1;ratioP1;P1;durP2;ratioP2;P2;SDS_P1;SDS_P2;PMS_P1;PMS_P2;Temp;Humidity;BMP_temperature;BMP_pressure;BME280_temperature;BME280_humidity;BME280_pressure;Samples;Min_cycle;Max_cycle;Signal;HPM_P1;HPM_P2
2023/12/28 00:01:00;;;;;;;3.63;3.40;;;10.40;99.90;;;;;;5084659;28;20308;-65
2023/12/28 00:03:29;;;;;;;4.47;3.53;;;10.40;99.90;;;;;;5086601;28;20242;-64
2023/12/28 00:05:58;;;;;;;5.73;3.40;;;10.40;99.90;;;;;;5082513;27;20214;-65
2023/12/28 00:08:27;;;;;;;4.00;3.57;;;10.40;99.90;;;;;;5082432;28;20721;-64
2023/12/28 00:10:59;;;;;;;4.17;3.63;;;10.40;99.90;;;;;;5085796;28;20650;-65
2023/12/28 00:13:28;;;;;;;3.53;3.23;;;10.40;99.90;;;;;;5084877;28;20224;-66
2023/12/28 00:15:56;;;;;;;6.87;3.27;;;10.30;99.90;;;;;;5079837;28;20866;-64
2023/12/28 00:18:28;;;;;;;3.87;3.40;;;10.30;99.90;;;;;;5085025;28;20848;-65
2023/12/28 00:20:57;;;;;;;5.53;3.50;;;10.30;99.90;;;;;;5084512;28;20223;-65
2023/12/28 00:23:25;;;;;;;3.80;3.43;;;10.40;99.90;;;;;;5086495;28;20239;-65
2023/12/28 00:25:54;;;;;;;3.63;3.43;;;10.30;99.90;;;;;;5080679;28;20205;-65
2023/12/28 00:28:23;;;;;;;4.07;3.10;;;10.40;99.90;;;;;;5082652;28;20220;-64
2023/12/28 00:30:51;;;;;;;3.50;3.30;;;10.40;99.90;;;;;;5083763;28;20258;-64
2023/12/28 00:33:20;;;;;;;4.90;3.60;;;10.40;99.90;;;;;;5083914;28;20237;-64
2023/12/28 00:35:50;;;;;;;4.53;3.70;;;10.40;99.90;;;;;;5080628;28;20676;-64
2023/12/28 00:38:19;;;;;;;4.23;3.83;;;10.40;99.90;;;;;;5080228;28;20240;-64
2023/12/28 00:40:48;;;;;;;4.23;3.60;;;10.40;99.90;;;;;;5086919;28;20196;-65
2023/12/28 00:43:17;;;;;;;4.40;4.00;;;10.40;99.90;;;;;;5081765;28;20755;-65
2023/12/28 00:45:46;;;;;;;5.40;3.90;;;10.40;99.90;;;;;;5086477;28;20220;-64
2023/12/28 00:48:15;;;;;;;4.23;3.83;;;10.40;99.90;;;;;;5080966;28;20233;-64
2023/12/28 00:50:44;;;;;;;4.80;3.87;;;10.50;99.90;;;;;;5086093;28;20681;-64
2023/12/28 00:53:15;;;;;;;5.43;3.93;;;10.40;99.90;;;;;;5081813;28;20196;-64
2023/12/28 00:55:43;;;;;;;5.77;3.70;;;10.40;99.90;;;;;;5083622;28;20266;-65
2023/12/28 00:58:12;;;;;;;3.77;3.33;;;10.40;99.90;;;;;;5080213;28;20220;-64
2023/12/28 01:00:45;;;;;;;4.10;3.30;;;10.40;99.90;;;;;;5082723;28;20288;-64
2023/12/28 01:03:14;;;;;;;4.53;3.60;;;10.40;99.90;;;;;;5081569;28;20257;-65
2023/12/28 01:05:43;;;;;;;4.33;3.93;;;10.40;99.90;;;;;;5086239;28;20589;-65
2023/12/28 01:08:12;;;;;;;4.93;3.93;;;10.30;99.90;;;;;;5080828;28;20241;-64
2023/12/28 01:10:41;;;;;;;4.30;3.90;;;10.30;99.90;;;;;;5083753;28;20202;-64
2023/12/28 01:13:09;;;;;;;3.97;3.57;;;10.40;99.90;;;;;;5082563;28;20215;-64
2023/12/28 01:15:37;;;;;;;3.87;3.47;;;10.40;99.90;;;;;;5084984;28;20224;-64
2023/12/28 01:18:05;;;;;;;7.70;3.90;;;10.30;99.90;;;;;;5084841;28;20242;-64
2023/12/28 01:20:34;;;;;;;4.70;3.97;;;10.30;99.90;;;;;;5082500;28;21251;-64
2023/12/28 01:23:03;;;;;;;6.13;3.60;;;10.30;99.90;;;;;;5077776;28;20187;-64
2023/12/28 01:25:32;;;;;;;4.50;3.80;;;10.30;99.90;;;;;;5081539;28;20204;-65
2023/12/28 01:28:00;;;;;;;3.93;3.63;;;10.30;99.90;;;;;;5081883;28;20219;-64
2023/12/28 01:30:29;;;;;;;4.07;3.53;;;10.30;99.90;;;;;;5081243;28;20256;-64
2023/12/28 01:32:57;;;;;;;7.17;3.80;;;10.30;99.90;;;;;;5078782;27;20235;-64
2023/12/28 01:35:26;;;;;;;4.83;3.90;;;10.20;99.90;;;;;;5084605;28;20231;-64
2023/12/28 01:37:54;;;;;;;7.37;3.77;;;10.20;99.90;;;;;;5087320;28;20195;-64
2023/12/28 01:40:22;;;;;;;4.00;3.70;;;10.20;99.90;;;;;;5078736;28;20222;-64
2023/12/28 01:42:52;;;;;;;4.93;3.70;;;10.20;99.90;;;;;;5082217;28;20706;-64
2023/12/28 01:45:20;;;;;;;3.80;3.40;;;10.30;99.90;;;;;;5082886;28;20218;-64
2023/12/28 01:47:50;;;;;;;5.00;3.50;;;10.30;99.90;;;;;;5080277;28;20296;-65
2023/12/28 01:50:19;;;;;;;4.63;3.40;;;10.30;99.90;;;;;;5082197;28;20380;-65
2023/12/28 01:52:48;;;;;;;3.57;3.20;;;10.30;99.90;;;;;;5081735;28;20286;-64
2023/12/28 01:55:17;;;;;;;3.73;3.47;;;10.30;99.90;;;;;;5083071;28;20215;-64
2023/12/28 01:57:46;;;;;;;3.93;3.50;;;10.30;99.90;;;;;;5079434;28;20224;-65
2023/12/28 02:00:16;;;;;;;4.23;3.73;;;10.30;99.90;;;;;;5081362;28;20227;-64
2023/12/28 02:02:45;;;;;;;3.90;3.60;;;10.30;99.90;;;;;;5081646;28;20306;-64
2023/12/28 02:05:15;;;;;;;3.63;3.33;;;10.30;99.90;;;;;;5077501;28;20196;-65
2023/12/28 02:07:43;;;;;;;5.83;3.80;;;10.30;99.90;;;;;;5081079;28;20198;-65
2023/12/28 02:10:11;;;;;;;3.40;3.10;;;10.30;99.90;;;;;;5083135;28;20724;-65
2023/12/28 02:12:40;;;;;;;7.83;3.47;;;10.20;99.90;;;;;;5084150;28;20316;-64
2023/12/28 02:15:09;;;;;;;5.40;3.63;;;10.30;99.90;;;;;;5086867;28;20223;-64
2023/12/28 02:17:46;;;;;;;5.07;3.27;;;10.30;99.90;;;;;;5086834;28;20766;-64
2023/12/28 02:20:15;;;;;;;5.90;3.40;;;10.40;99.90;;;;;;5086307;28;20217;-64
2023/12/28 02:22:45;;;;;;;3.43;3.13;;;10.40;99.90;;;;;;5087633;28;20551;-64
2023/12/28 02:25:14;;;;;;;8.50;3.93;;;10.40;99.90;;;;;;5088243;28;20283;-65
2023/12/28 02:27:46;;;;;;;3.93;3.40;;;10.40;99.90;;;;;;5087932;28;20754;-64
2023/12/28 02:30:17;;;;;;;6.73;3.20;;;10.40;99.90;;;;;;5084539;28;20215;-64
2023/12/28 02:32:55;;;;;;;5.53;3.23;;;10.30;99.90;;;;;;5087165;28;20235;-64
2023/12/28 02:35:27;;;;;;;7.33;3.80;;;10.30;99.90;;;;;;5084435;28;20677;-64
2023/12/28 02:38:00;;;;;;;6.53;3.50;;;10.30;99.90;;;;;;5086427;28;20269;-64
2023/12/28 02:40:36;;;;;;;9.03;3.47;;;10.30;99.90;;;;;;5085472;28;20251;-64
2023/12/28 02:43:05;;;;;;;4.27;3.13;;;10.40;99.90;;;;;;5083164;28;20227;-65
2023/12/28 02:45:36;;;;;;;3.80;2.77;;;10.40;99.90;;;;;;5086870;28;20311;-64
2023/12/28 02:48:06;;;;;;;5.00;3.43;;;10.50;99.90;;;;;;5081378;28;20226;-64
2023/12/28 02:50:35;;;;;;;6.77;3.77;;;10.50;99.90;;;;;;5084872;28;20550;-64
2023/12/28 02:53:04;;;;;;;3.67;3.37;;;10.50;99.90;;;;;;5084565;28;20191;-62
2023/12/28 02:55:34;;;;;;;6.13;3.37;;;10.40;99.90;;;;;;5086246;28;20711;-64
2023/12/28 02:58:02;;;;;;;8.13;4.00;;;10.40;99.90;;;;;;5086487;28;20846;-64
2023/12/28 03:00:31;;;;;;;7.37;3.23;;;10.30;99.90;;;;;;5087372;28;20585;-65
2023/12/28 03:03:00;;;;;;;7.27;3.10;;;10.30;99.90;;;;;;5085889;28;20262;-64
2023/12/28 03:05:28;;;;;;;8.60;3.40;;;10.30;99.90;;;;;;5083334;28;20265;-64
2023/12/28 03:07:58;;;;;;;5.57;3.53;;;10.30;99.90;;;;;;5083672;28;20192;-64
2023/12/28 03:10:26;;;;;;;4.67;3.23;;;10.30;99.90;;;;;;4961564;28;20266;-64
2023/12/28 03:12:57;;;;;;;8.33;3.70;;;10.20;99.90;;;;;;4975927;28;20232;-63
2023/12/28 03:15:26;;;;;;;5.40;3.20;;;10.20;99.90;;;;;;5045475;28;20581;-64
2023/12/28 03:17:54;;;;;;;4.00;3.60;;;10.20;99.90;;;;;;5081144;28;20215;-64
2023/12/28 03:20:23;;;;;;;8.80;3.20;;;10.10;99.90;;;;;;5085963;28;20289;-64
2023/12/28 03:22:51;;;;;;;6.23;4.20;;;10.10;99.90;;;;;;5085428;28;20200;-64
2023/12/28 03:25:20;;;;;;;7.27;3.20;;;10.10;99.90;;;;;;5080398;28;20216;-64
2023/12/28 03:27:48;;;;;;;6.10;3.13;;;10.10;99.90;;;;;;5081484;28;20285;-64
2023/12/28 03:30:18;;;;;;;5.43;3.10;;;10.10;99.90;;;;;;5083100;28;20239;-64
2023/12/28 03:32:46;;;;;;;5.87;3.03;;;10.10;99.90;;;;;;5079718;28;20222;-64
2023/12/28 03:35:15;;;;;;;5.93;3.07;;;10.00;99.90;;;;;;5083509;28;20191;-64
2023/12/28 03:37:43;;;;;;;3.43;3.13;;;10.10;99.90;;;;;;5083017;28;20211;-64
2023/12/28 03:40:12;;;;;;;6.43;3.10;;;10.10;99.90;;;;;;5082241;28;20224;-64
2023/12/28 03:42:40;;;;;;;4.17;3.00;;;10.00;99.90;;;;;;5083451;28;20222;-63
2023/12/28 03:45:09;;;;;;;6.43;3.00;;;10.00;99.90;;;;;;5080681;28;20689;-63
2023/12/28 03:47:39;;;;;;;6.30;3.40;;;10.00;99.90;;;;;;5078329;28;20224;-63
2023/12/28 03:50:08;;;;;;;7.20;3.07;;;10.00;99.90;;;;;;5078941;28;20192;-63
2023/12/28 03:52:36;;;;;;;7.03;3.20;;;10.00;99.90;;;;;;5077625;28;20215;-63
2023/12/28 03:55:05;;;;;;;3.50;3.20;;;9.90;99.90;;;;;;5081783;28;20328;-62
2023/12/28 03:57:33;;;;;;;6.77;3.17;;;10.00;99.90;;;;;;5082794;28;20224;-63
2023/12/28 04:00:02;;;;;;;7.73;3.23;;;9.90;99.90;;;;;;5083421;28;20301;-63
2023/12/28 04:02:31;;;;;;;6.32;2.90;;;9.90;99.90;;;;;;5050647;28;2049942;-58
2023/12/28 04:05:01;;;;;;;9.60;3.40;;;9.90;99.90;;;;;;5085248;28;20938;-62
2023/12/28 04:07:29;;;;;;;9.90;3.17;;;9.90;99.90;;;;;;5083020;28;20199;-64
2023/12/28 04:09:58;;;;;;;7.27;3.20;;;9.90;99.90;;;;;;5084114;28;20215;-63
2023/12/28 04:12:28;;;;;;;3.57;3.03;;;9.90;99.90;;;;;;5083876;28;20220;-63
2023/12/28 04:14:56;;;;;;;6.10;2.90;;;10.00;99.90;;;;;;5083749;28;20227;-64
2023/12/28 04:17:24;;;;;;;7.37;3.20;;;10.10;99.90;;;;;;5084415;28;20258;-63
2023/12/28 04:19:53;;;;;;;5.23;3.23;;;10.10;99.90;;;;;;5086174;28;20665;-63
2023/12/28 04:22:21;;;;;;;5.70;2.80;;;10.20;99.90;;;;;;5083078;28;20265;-63
2023/12/28 04:24:50;;;;;;;5.50;3.03;;;10.20;99.90;;;;;;5081995;28;20251;-64
2023/12/28 04:27:18;;;;;;;6.27;3.10;;;10.20;99.90;;;;;;5084807;28;20220;-63
2023/12/28 04:29:46;;;;;;;8.90;3.27;;;10.20;99.90;;;;;;5082580;28;20227;-64
2023/12/28 04:32:14;;;;;;;9.03;3.20;;;10.20;99.90;;;;;;5086357;28;20210;-63
2023/12/28 04:34:43;;;;;;;7.63;3.37;;;10.20;99.90;;;;;;5087037;28;20191;-63
2023/12/28 04:37:11;;;;;;;8.60;3.47;;;10.20;99.90;;;;;;5079583;28;20585;-63
2023/12/28 04:39:41;;;;;;;4.33;2.70;;;10.30;99.90;;;;;;5081469;28;20694;-64
2023/12/28 04:42:10;;;;;;;8.30;3.03;;;10.30;99.90;;;;;;5083378;28;20232;-64
2023/12/28 04:44:39;;;;;;;8.60;2.83;;;10.30;99.90;;;;;;5083254;28;20225;-63
2023/12/28 04:47:07;;;;;;;6.93;3.03;;;10.20;99.90;;;;;;5085210;28;20183;-63
2023/12/28 04:49:36;;;;;;;6.40;3.03;;;10.20;99.90;;;;;;5080489;28;20668;-63
2023/12/28 04:52:05;;;;;;;6.63;2.77;;;10.10;99.90;;;;;;5086297;28;20225;-63
2023/12/28 04:54:33;;;;;;;4.67;2.73;;;10.10;99.90;;;;;;5081839;28;20230;-63
2023/12/28 04:57:03;;;;;;;6.03;3.07;;;10.00;99.90;;;;;;5084407;28;20218;-63
2023/12/28 04:59:32;;;;;;;6.40;2.60;;;10.10;99.90;;;;;;5084664;28;20215;-63
2023/12/28 05:02:00;;;;;;;9.87;3.40;;;10.10;99.90;;;;;;5078022;28;20213;-63
2023/12/28 05:04:28;;;;;;;7.43;3.03;;;10.10;99.90;;;;;;5085388;28;20224;-63
2023/12/28 05:06:56;;;;;;;7.90;3.37;;;10.10;99.90;;;;;;5080189;28;20230;-63
2023/12/28 05:09:25;;;;;;;5.67;2.90;;;10.10;99.90;;;;;;5082696;28;20227;-63
2023/12/28 05:11:53;;;;;;;11.43;3.23;;;10.20;99.90;;;;;;5081042;28;20219;-63
2023/12/28 05:14:22;;;;;;;10.57;3.50;;;10.20;99.90;;;;;;5080881;28;20547;-63
2023/12/28 05:16:51;;;;;;;10.53;2.97;;;10.20;99.90;;;;;;5081571;28;20203;-63
2023/12/28 05:19:19;;;;;;;6.07;2.83;;;10.20;99.90;;;;;;5082267;28;20653;-63
2023/12/28 05:21:47;;;;;;;5.03;2.77;;;10.10;99.90;;;;;;5080414;28;20222;-63
2023/12/28 05:24:16;;;;;;;6.53;2.80;;;10.20;99.90;;;;;;5084818;28;20712;-63
2023/12/28 05:26:44;;;;;;;10.03;3.10;;;10.10;99.90;;;;;;5079015;28;20745;-62
2023/12/28 05:29:12;;;;;;;11.07;3.20;;;10.20;99.90;;;;;;5083088;28;20241;-63
2023/12/28 05:31:42;;;;;;;10.87;3.33;;;10.20;99.90;;;;;;5083507;28;20184;-63
2023/12/28 05:34:10;;;;;;;17.30;3.27;;;10.20;99.90;;;;;;5078408;27;20238;-63
2023/12/28 05:36:40;;;;;;;8.50;2.77;;;10.20;99.90;;;;;;5077961;28;21375;-63
2023/12/28 05:39:09;;;;;;;8.87;2.73;;;10.30;99.90;;;;;;5081914;28;20216;-63
2023/12/28 05:41:37;;;;;;;12.23;3.03;;;10.30;99.90;;;;;;5082734;28;20238;-63
2023/12/28 05:44:05;;;;;;;9.80;3.00;;;10.30;99.90;;;;;;5083400;28;20192;-62
2023/12/28 05:46:34;;;;;;;10.13;3.03;;;10.20;99.90;;;;;;5084254;28;20192;-63
2023/12/28 05:49:03;;;;;;;9.23;3.20;;;10.20;99.90;;;;;;5084248;28;20278;-63
2023/12/28 05:51:39;;;;;;;8.50;2.80;;;10.10;99.90;;;;;;5079921;28;20223;-63
2023/12/28 05:54:08;;;;;;;14.87;2.73;;;10.10;99.90;;;;;;5078616;27;20227;-63
2023/12/28 05:56:37;;;;;;;10.10;2.57;;;10.10;99.90;;;;;;5085038;28;20223;-63
2023/12/28 05:59:05;;;;;;;12.57;2.97;;;10.10;99.90;;;;;;5084687;28;20290;-62
2023/12/28 06:01:33;;;;;;;10.67;2.90;;;10.10;99.90;;;;;;5079692;28;20208;-63
2023/12/28 06:04:03;;;;;;;8.00;2.77;;;10.00;99.90;;;;;;5082034;28;20229;-63
2023/12/28 06:06:31;;;;;;;7.73;2.50;;;10.00;99.90;;;;;;5078463;28;20243;-63
2023/12/28 06:08:59;;;;;;;10.63;2.60;;;10.00;99.90;;;;;;5081842;28;20239;-63
2023/12/28 06:11:28;;;;;;;12.40;2.93;;;10.00;99.90;;;;;;5084095;28;20220;-62
2023/12/28 06:13:56;;;;;;;11.10;3.00;;;10.00;99.90;;;;;;5086005;28;20277;-62
2023/12/28 06:16:25;;;;;;;9.27;2.47;;;10.00;99.90;;;;;;5083648;28;20215;-63
2023/12/28 06:18:53;;;;;;;11.03;2.70;;;10.00;99.90;;;;;;5081924;28;20283;-63
2023/12/28 06:21:23;;;;;;;10.47;2.93;;;9.90;99.90;;;;;;5083962;28;20246;-62
2023/12/28 06:23:52;;;;;;;9.37;2.60;;;9.90;99.90;;;;;;5083125;28;20231;-63
2023/12/28 06:26:20;;;;;;;10.33;2.70;;;9.90;99.90;;;;;;5083740;28;20227;-62
2023/12/28 06:28:49;;;;;;;8.33;3.17;;;9.90;99.90;;;;;;5085641;28;20195;-63
2023/12/28 06:31:17;;;;;;;8.77;2.70;;;9.90;99.90;;;;;;5084871;28;20219;-63
2023/12/28 06:33:45;;;;;;;14.27;3.00;;;9.90;99.90;;;;;;5081147;28;20219;-63
2023/12/28 06:36:14;;;;;;;11.50;2.67;;;9.80;99.90;;;;;;5083333;28;20228;-63
2023/12/28 06:38:43;;;;;;;5.60;2.53;;;9.80;99.90;;;;;;5076125;28;20238;-63
2023/12/28 06:41:13;;;;;;;8.90;2.87;;;9.80;99.90;;;;;;5081658;28;20294;-62
2023/12/28 06:43:41;;;;;;;10.00;2.63;;;9.80;99.90;;;;;;5083593;28;20231;-63
2023/12/28 06:46:09;;;;;;;12.20;2.50;;;9.70;99.90;;;;;;5084635;28;20250;-63
2023/12/28 06:48:40;;;;;;;9.43;2.97;;;9.70;99.90;;;;;;5080650;28;20226;-63
2023/12/28 06:51:08;;;;;;;13.97;2.87;;;9.70;99.90;;;;;;5080921;28;20693;-63
2023/12/28 06:53:36;;;;;;;13.57;2.87;;;9.70;99.90;;;;;;5081088;28;20689;-63
2023/12/28 06:56:06;;;;;;;11.07;2.93;;;9.70;99.90;;;;;;5082355;28;20550;-62
2023/12/28 06:58:34;;;;;;;9.60;2.60;;;9.60;99.90;;;;;;5082654;28;20187;-63
2023/12/28 07:01:04;;;;;;;10.90;3.03;;;9.60;99.90;;;;;;5089736;28;20219;-63
2023/12/28 07:03:32;;;;;;;11.30;2.97;;;9.70;99.90;;;;;;5085466;28;20227;-63
2023/12/28 07:06:01;;;;;;;17.80;3.30;;;9.60;99.90;;;;;;5086162;28;20250;-63
2023/12/28 07:08:29;;;;;;;11.97;3.00;;;9.60;99.90;;;;;;5086749;28;20311;-62
2023/12/28 07:11:02;;;;;;;10.10;2.70;;;9.70;99.90;;;;;;5087292;28;20597;-62
2023/12/28 07:13:32;;;;;;;14.73;3.17;;;9.70;99.90;;;;;;5086355;28;20203;-63
2023/12/28 07:16:01;;;;;;;18.67;3.20;;;9.70;99.90;;;;;;5084785;28;20208;-63
2023/12/28 07:18:30;;;;;;;10.10;2.93;;;9.70;99.90;;;;;;5087441;28;20258;-63
2023/12/28 07:20:58;;;;;;;12.13;3.40;;;9.60;99.90;;;;;;5083989;28;20245;-63
2023/12/28 07:23:27;;;;;;;13.70;2.93;;;9.60;99.90;;;;;;5084444;28;20693;-63
2023/12/28 07:25:55;;;;;;;19.73;3.20;;;9.60;99.90;;;;;;5086883;28;20195;-63
2023/12/28 07:28:23;;;;;;;15.77;2.90;;;9.60;99.90;;;;;;5083377;28;20286;-63
2023/12/28 07:30:53;;;;;;;15.77;2.67;;;9.50;99.90;;;;;;5084006;28;20243;-63
2023/12/28 07:33:22;;;;;;;9.40;2.70;;;9.50;99.90;;;;;;5083867;27;20254;-63
2023/12/28 07:35:50;;;;;;;12.30;3.03;;;9.50;99.90;;;;;;5082906;28;20243;-63
2023/12/28 07:38:19;;;;;;;9.03;3.00;;;9.40;99.90;;;;;;5084604;28;20227;-63
2023/12/28 07:40:47;;;;;;;12.73;3.13;;;9.40;99.90;;;;;;5082448;28;20213;-63
2023/12/28 07:43:15;;;;;;;18.43;3.27;;;9.50;99.90;;;;;;5084507;28;20246;-63
2023/12/28 07:45:43;;;;;;;11.07;2.67;;;9.40;99.90;;;;;;5083379;28;20238;-63
2023/12/28 07:48:13;;;;;;;14.90;2.80;;;9.40;99.90;;;;;;5082413;28;21692;-63
2023/12/28 07:50:42;;;;;;;12.57;3.03;;;9.40;99.90;;;;;;5082500;28;20230;-63
2023/12/28 07:53:10;;;;;;;16.27;2.83;;;9.40;99.90;;;;;;5087316;28;20551;-63
2023/12/28 07:55:38;;;;;;;9.93;2.77;;;9.40;99.90;;;;;;5082565;28;20283;-63
2023/12/28 07:58:06;;;;;;;7.80;2.70;;;9.40;99.90;;;;;;5084116;28;20311;-63
2023/12/28 08:00:35;;;;;;;13.97;3.67;;;9.50;99.90;;;;;;5086572;28;20705;-63
2023/12/28 08:03:03;;;;;;;12.43;2.90;;;9.50;99.90;;;;;;5084534;28;20666;-63
2023/12/28 08:05:34;;;;;;;11.47;2.80;;;9.60;99.90;;;;;;5080412;28;20223;-63
2023/12/28 08:08:02;;;;;;;13.83;2.63;;;9.60;99.90;;;;;;5081807;28;20184;-63
2023/12/28 08:10:31;;;;;;;17.47;3.00;;;9.60;99.90;;;;;;5086934;28;20188;-63
2023/12/28 08:12:59;;;;;;;9.50;2.90;;;9.60;99.90;;;;;;5086306;28;20215;-63
2023/12/28 08:15:27;;;;;;;17.03;2.60;;;9.70;99.90;;;;;;5081529;28;20679;-63
2023/12/28 08:17:55;;;;;;;16.07;2.90;;;9.70;99.90;;;;;;5083049;28;20219;-63
2023/12/28 08:20:24;;;;;;;15.80;2.80;;;9.70;99.90;;;;;;5083321;28;20223;-63
2023/12/28 08:22:54;;;;;;;15.33;3.10;;;9.70;99.90;;;;;;5085093;28;20212;-63
2023/12/28 08:25:41;;;;;;;19.30;3.33;;;9.70;99.90;;;;;;5081642;28;20306;-63
2023/12/28 08:28:09;;;;;;;13.23;3.00;;;9.70;99.90;;;;;;5085313;27;20221;-63
2023/12/28 08:30:38;;;;;;;13.90;3.17;;;9.70;99.90;;;;;;5083270;28;20223;-63
2023/12/28 08:33:06;;;;;;;10.33;2.50;;;9.80;99.90;;;;;;5083238;28;20215;-63
2023/12/28 08:35:35;;;;;;;17.17;3.07;;;9.80;99.90;;;;;;5079665;28;20216;-63
2023/12/28 08:38:05;;;;;;;10.60;2.73;;;9.80;99.90;;;;;;5080580;28;20203;-63
2023/12/28 08:40:34;;;;;;;27.90;3.37;;;9.80;99.90;;;;;;5082979;28;20196;-62
2023/12/28 08:43:03;;;;;;;12.63;2.90;;;9.90;99.90;;;;;;5084772;28;20219;-63
2023/12/28 08:45:31;;;;;;;17.83;3.03;;;9.90;99.90;;;;;;5082539;28;20226;-63
2023/12/28 08:47:59;;;;;;;11.07;3.40;;;9.90;99.90;;;;;;5080176;28;20235;-64
2023/12/28 08:50:28;;;;;;;14.07;3.70;;;9.90;99.90;;;;;;5079661;28;20723;-63
2023/12/28 08:52:56;;;;;;;16.40;3.80;;;9.90;99.90;;;;;;5086880;28;20196;-63
2023/12/28 08:55:26;;;;;;;24.53;6.80;;;9.90;99.90;;;;;;5081753;28;20211;-63
2023/12/28 08:57:54;;;;;;;23.93;4.40;;;9.90;99.90;;;;;;5084071;28;20218;-63
2023/12/28 09:00:23;;;;;;;16.43;3.33;;;10.00;99.90;;;;;;5086445;28;20233;-63
2023/12/28 09:02:51;;;;;;;13.40;3.23;;;10.00;99.90;;;;;;5082709;28;20658;-63
2023/12/28 09:05:20;;;;;;;15.43;3.90;;;10.10;99.90;;;;;;5081241;28;20223;-64
2023/12/28 09:07:48;;;;;;;17.27;2.83;;;10.20;99.90;;;;;;5083578;28;20192;-64
2023/12/28 09:10:17;;;;;;;17.27;3.00;;;10.20;99.90;;;;;;5079310;28;20239;-64
2023/12/28 09:12:47;;;;;;;9.70;3.00;;;10.30;99.90;;;;;;5083437;28;20231;-64
2023/12/28 09:15:15;;;;;;;15.63;3.50;;;10.30;99.90;;;;;;5081553;28;20265;-64
2023/12/28 09:17:44;;;;;;;10.53;3.13;;;10.30;99.90;;;;;;5084760;28;20229;-63
2023/12/28 09:20:12;;;;;;;11.17;3.27;;;10.40;99.90;;;;;;5080301;28;20194;-64
2023/12/28 09:22:41;;;;;;;17.23;2.83;;;10.40;99.90;;;;;;5081004;28;20545;-64
2023/12/28 09:25:09;;;;;;;18.90;3.63;;;10.40;99.90;;;;;;5081832;28;20269;-64
2023/12/28 09:27:38;;;;;;;15.47;2.97;;;10.50;99.90;;;;;;5081953;28;20223;-63
2023/12/28 09:30:09;;;;;;;17.70;3.30;;;10.50;99.90;;;;;;5080829;28;20208;-64
2023/12/28 09:32:37;;;;;;;11.77;2.80;;;10.50;99.90;;;;;;5079041;27;20216;-64
2023/12/28 09:35:06;;;;;;;16.47;3.10;;;10.50;99.90;;;;;;5080411;27;20737;-63
2023/12/28 09:37:35;;;;;;;19.10;3.53;;;10.50;99.90;;;;;;5083257;28;20195;-64
2023/12/28 09:40:04;;;;;;;22.90;3.87;;;10.60;99.90;;;;;;5078691;28;20614;-63
2023/12/28 09:42:40;;;;;;;13.50;3.17;;;10.60;99.90;;;;;;5082505;28;20296;-64
2023/12/28 09:45:11;;;;;;;26.43;3.27;;;10.60;99.90;;;;;;5080607;28;20226;-63
2023/12/28 09:47:39;;;;;;;12.00;2.90;;;10.60;99.90;;;;;;5078766;28;20224;-64
2023/12/28 09:50:08;;;;;;;17.83;3.10;;;10.70;99.90;;;;;;5079863;28;20209;-64
2023/12/28 09:52:37;;;;;;;12.60;2.90;;;10.70;99.90;;;;;;5083562;28;20286;-64
2023/12/28 09:55:05;;;;;;;20.10;3.73;;;10.80;99.90;;;;;;5079292;28;20219;-63
2023/12/28 09:57:34;;;;;;;14.47;3.07;;;10.80;99.90;;;;;;5085320;28;20630;-64
2023/12/28 10:00:03;;;;;;;24.03;3.20;;;10.80;99.90;;;;;;5084818;28;20223;-63
2023/12/28 10:02:34;;;;;;;16.90;2.90;;;10.80;99.90;;;;;;5081602;28;20221;-63
2023/12/28 10:05:07;;;;;;;14.90;3.13;;;10.90;99.90;;;;;;5081909;28;20187;-63
2023/12/28 10:07:43;;;;;;;12.20;3.10;;;10.90;99.90;;;;;;5079851;28;20206;-64
2023/12/28 10:10:14;;;;;;;12.47;3.20;;;11.10;99.90;;;;;;5077943;28;20253;-64
2023/12/28 10:12:42;;;;;;;13.73;3.43;;;11.10;99.90;;;;;;5082017;28;20313;-64
2023/12/28 10:15:10;;;;;;;19.80;3.10;;;11.10;99.90;;;;;;5078902;28;20230;-64
2023/12/28 10:17:40;;;;;;;15.10;3.37;;;11.10;99.90;;;;;;5082107;28;20281;-63
2023/12/28 10:20:09;;;;;;;15.23;3.20;;;11.10;99.90;;;;;;5083638;28;20274;-64
2023/12/28 10:22:38;;;;;;;15.87;4.00;;;11.10;99.90;;;;;;5080900;28;20626;-63
2023/12/28 10:25:08;;;;;;;10.23;3.37;;;11.10;99.90;;;;;;5080567;28;20227;-64
2023/12/28 10:27:39;;;;;;;16.17;3.53;;;11.20;99.90;;;;;;5080003;28;20582;-64
2023/12/28 10:30:09;;;;;;;20.30;3.57;;;11.20;99.90;;;;;;5085353;28;20226;-64
2023/12/28 10:32:42;;;;;;;16.30;3.30;;;11.30;99.90;;;;;;5086672;28;20218;-63
2023/12/28 10:35:11;;;;;;;19.57;3.60;;;11.30;99.90;;;;;;5083750;28;20236;-64
2023/12/28 10:37:42;;;;;;;14.70;2.90;;;11.50;99.90;;;;;;5080703;28;20247;-64
2023/12/28 10:40:15;;;;;;;16.67;3.70;;;11.60;99.90;;;;;;5090430;27;20234;-64
2023/12/28 10:42:51;;;;;;;20.80;2.90;;;11.60;99.90;;;;;;5085529;28;20284;-63
2023/12/28 10:45:23;;;;;;;13.67;2.83;;;11.70;99.90;;;;;;5086950;28;20227;-64
2023/12/28 10:48:00;;;;;;;16.47;3.43;;;11.80;99.90;;;;;;5088066;28;20309;-64
2023/12/28 10:50:35;;;;;;;19.77;2.93;;;11.80;99.90;;;;;;5088193;28;20585;-64
2023/12/28 10:53:12;;;;;;;20.20;3.70;;;11.70;99.90;;;;;;5082225;28;20226;-63
2023/12/28 10:56:00;;;;;;;15.90;3.13;;;11.70;99.90;;;;;;5084069;28;20191;-63
2023/12/28 10:58:39;;;;;;;13.87;3.57;;;11.60;99.90;;;;;;5086992;28;20215;-63
2023/12/28 11:01:10;;;;;;;16.30;3.67;;;11.60;99.90;;;;;;5087820;28;20562;-63
2023/12/28 11:03:44;;;;;;;19.97;3.47;;;11.50;99.90;;;;;;5085485;28;20231;-63
2023/12/28 11:06:15;;;;;;;16.90;3.30;;;11.40;99.90;;;;;;5088739;28;20224;-62
2023/12/28 11:08:48;;;;;;;28.67;3.50;;;11.40;99.90;;;;;;5083277;28;20215;-62
2023/12/28 11:11:16;;;;;;;21.17;4.03;;;11.40;99.90;;;;;;5084952;28;20207;-62
2023/12/28 11:13:46;;;;;;;14.70;3.03;;;11.50;99.90;;;;;;5082543;28;20603;-62
2023/12/28 11:16:16;;;;;;;18.73;3.80;;;11.50;99.90;;;;;;5083196;28;20211;-63
2023/12/28 11:18:46;;;;;;;14.27;2.87;;;11.50;99.90;;;;;;5084719;28;20227;-62
2023/12/28 11:21:15;;;;;;;21.40;3.33;;;11.50;99.90;;;;;;5085934;28;20227;-62
2023/12/28 11:23:44;;;;;;;18.60;3.33;;;11.50;99.90;;;;;;5085092;28;20222;-62
2023/12/28 11:26:18;;;;;;;10.13;2.97;;;11.50;99.90;;;;;;5087330;28;20299;-63
2023/12/28 11:28:47;;;;;;;9.77;2.83;;;11.60;99.90;;;;;;5083649;28;20187;-63
2023/12/28 11:31:15;;;;;;;11.50;3.23;;;11.60;99.90;;;;;;5082389;28;20227;-62
2023/12/28 11:33:46;;;;;;;9.03;3.00;;;11.60;99.90;;;;;;5084057;28;20223;-63
2023/12/28 11:36:25;;;;;;;17.10;3.60;;;11.50;99.90;;;;;;5084482;28;20206;-62
2023/12/28 11:38:56;;;;;;;16.03;3.03;;;11.40;99.90;;;;;;5087223;28;20306;-63
2023/12/28 11:41:26;;;;;;;16.73;3.37;;;11.40;99.90;;;;;;5083681;28;20578;-63
2023/12/28 11:43:55;;;;;;;26.50;3.97;;;11.40;99.90;;;;;;5086113;28;20219;-63
2023/12/28 11:46:23;;;;;;;15.10;3.03;;;11.50;99.90;;;;;;5083240;28;22379;-63
2023/12/28 11:49:03;;;;;;;16.77;3.77;;;11.50;99.90;;;;;;5083627;28;20223;-63
2023/12/28 11:51:32;;;;;;;18.37;3.20;;;11.50;99.90;;;;;;5085456;28;20558;-63
2023/12/28 11:54:01;;;;;;;14.53;2.93;;;11.50;99.90;;;;;;5084258;28;20250;-63
2023/12/28 11:56:29;;;;;;;12.10;3.23;;;11.50;99.90;;;;;;5081556;28;20776;-63
2023/12/28 11:58:59;;;;;;;11.17;2.90;;;11.50;99.90;;;;;;5087472;28;20187;-63
2023/12/28 12:01:27;;;;;;;19.57;3.67;;;11.60;99.90;;;;;;5079001;28;20679;-63
2023/12/28 12:03:57;;;;;;;15.60;3.20;;;11.60;99.90;;;;;;5079019;28;20333;-63
2023/12/28 12:06:26;;;;;;;10.63;2.73;;;11.60;99.90;;;;;;5073676;28;20259;-63
2023/12/28 12:08:54;;;;;;;17.13;2.97;;;11.60;99.90;;;;;;5082553;28;20254;-63
2023/12/28 12:11:22;;;;;;;14.37;3.07;;;11.60;99.90;;;;;;5078385;28;20332;-63
2023/12/28 12:13:52;;;;;;;16.80;3.90;;;11.60;99.90;;;;;;5085918;28;20192;-63
2023/12/28 12:16:20;;;;;;;19.83;3.50;;;11.70;99.90;;;;;;5079991;28;20230;-63
2023/12/28 12:18:50;;;;;;;17.50;3.93;;;11.70;99.90;;;;;;5085125;28;20236;-63
2023/12/28 12:21:19;;;;;;;19.23;3.43;;;11.70;99.90;;;;;;5083268;28;20238;-63
2023/12/28 12:23:50;;;;;;;14.80;3.50;;;11.60;99.90;;;;;;5080578;28;20742;-63
2023/12/28 12:26:19;;;;;;;11.03;3.03;;;11.60;99.90;;;;;;5079392;28;20196;-63
2023/12/28 12:28:47;;;;;;;17.30;3.00;;;11.60;99.90;;;;;;5082495;28;20203;-63
2023/12/28 12:31:16;;;;;;;16.87;3.17;;;11.50;99.90;;;;;;5077636;28;20273;-63
2023/12/28 12:33:45;;;;;;;16.50;2.90;;;11.50;99.90;;;;;;5076776;28;20262;-63
2023/12/28 12:36:16;;;;;;;11.43;2.63;;;11.50;99.90;;;;;;5083059;28;20215;-63
2023/12/28 12:38:46;;;;;;;22.73;3.43;;;11.50;99.90;;;;;;5081028;28;20233;-63
2023/12/28 12:41:14;;;;;;;16.93;3.03;;;11.40;99.90;;;;;;5082842;28;20187;-63
2023/12/28 12:43:43;;;;;;;18.20;3.23;;;11.40;99.90;;;;;;5086522;28;20610;-63
2023/12/28 12:46:11;;;;;;;16.37;3.30;;;11.40;99.90;;;;;;5083504;28;20223;-63
2023/12/28 12:48:40;;;;;;;19.20;3.27;;;11.40;99.90;;;;;;5082630;28;20313;-63
2023/12/28 12:51:10;;;;;;;18.90;3.33;;;11.40;99.90;;;;;;5084454;28;20238;-63
2023/12/28 12:53:38;;;;;;;11.07;2.90;;;11.40;99.90;;;;;;5078628;28;20218;-63